METAR Formatted Surface Weather Observation
Issued by NWS

Home | Current Version | Previous Version | Text Only | Print | Product List | Glossary On
Versions: 1 2 3 4 5
813
SAUS42 KTAE 270942
MTR1J0
METAR K1J0 270858Z AUTO 00000KT 10SM CLR 23/22 A3000 RMK AO2 SLP118
T02280217 56005



USA.gov is the U.S. government's official web portal to all federal, state and local government web resources and services.